Branchport, New York
Current Conditions -  °F | °C
As of 12:53 AM on Wednesday 22 Oct 2014 (Local Time) from KPEO Reporting Station
Haze Haze  
Wind Chill: 44°   Ceiling: 200
Heat Index: 47°   Visibility: 1.5mi
Dew Point: 45°   Wind: 6mph
Humidity: 93%   Direction: NA
Pressure: 30.04"   Gusts: NA
Location:  42.6°N, 77.15°W
Report Text: KPEO 220453Z AUTO VRB05KT 1 1/2SM BR OVC002 08/07 A3004 RMK AO2 RAE36 SLP174 P0002 T00830072 401280083
Loading
Personal Weather Stations






























Interactive Weather Map
Tropical Storm Tracking
New forecast layout! Learn more

10-Day Weather Forecast

Advertisements
Track Severe Weather on mobile